sensor_id;sensor_type;location;lat;lon;timestamp;P1;durP1;ratioP1;P2;durP2;ratioP2
938;SDS011;456;53.584;9.968;2022-12-07T00:02:17;4.90;;;4.50;;
938;SDS011;456;53.584;9.968;2022-12-07T00:04:43;4.83;;;4.43;;
938;SDS011;456;53.584;9.968;2022-12-07T00:07:08;5.47;;;5.07;;
938;SDS011;456;53.584;9.968;2022-12-07T00:09:34;5.03;;;4.50;;
938;SDS011;456;53.584;9.968;2022-12-07T00:11:59;5.30;;;4.80;;
938;SDS011;456;53.584;9.968;2022-12-07T00:14:25;5.00;;;4.60;;
938;SDS011;456;53.584;9.968;2022-12-07T00:16:51;5.87;;;5.30;;
938;SDS011;456;53.584;9.968;2022-12-07T00:19:17;5.13;;;4.60;;
938;SDS011;456;53.584;9.968;2022-12-07T00:21:42;6.07;;;5.53;;
938;SDS011;456;53.584;9.968;2022-12-07T00:24:09;4.57;;;4.20;;
938;SDS011;456;53.584;9.968;2022-12-07T00:26:36;5.23;;;4.73;;
938;SDS011;456;53.584;9.968;2022-12-07T00:29:04;5.17;;;4.73;;
938;SDS011;456;53.584;9.968;2022-12-07T00:31:32;5.33;;;4.90;;
938;SDS011;456;53.584;9.968;2022-12-07T00:34:03;4.70;;;4.30;;
938;SDS011;456;53.584;9.968;2022-12-07T00:36:32;5.07;;;4.67;;
938;SDS011;456;53.584;9.968;2022-12-07T00:38:58;4.67;;;4.27;;
938;SDS011;456;53.584;9.968;2022-12-07T00:41:25;5.10;;;4.60;;
938;SDS011;456;53.584;9.968;2022-12-07T00:43:53;5.03;;;4.63;;
938;SDS011;456;53.584;9.968;2022-12-07T00:46:19;5.60;;;5.10;;
938;SDS011;456;53.584;9.968;2022-12-07T00:48:46;4.90;;;4.50;;
938;SDS011;456;53.584;9.968;2022-12-07T00:51:13;4.87;;;4.50;;
938;SDS011;456;53.584;9.968;2022-12-07T00:53:39;4.43;;;4.03;;
938;SDS011;456;53.584;9.968;2022-12-07T00:56:06;4.40;;;4.00;;
938;SDS011;456;53.584;9.968;2022-12-07T00:58:36;4.73;;;4.23;;
938;SDS011;456;53.584;9.968;2022-12-07T01:01:03;4.93;;;4.43;;
938;SDS011;456;53.584;9.968;2022-12-07T01:03:30;5.30;;;4.80;;
938;SDS011;456;53.584;9.968;2022-12-07T01:05:55;4.90;;;4.50;;
938;SDS011;456;53.584;9.968;2022-12-07T01:08:22;4.00;;;3.60;;
938;SDS011;456;53.584;9.968;2022-12-07T01:10:49;4.17;;;3.83;;
938;SDS011;456;53.584;9.968;2022-12-07T01:13:21;4.53;;;4.20;;
938;SDS011;456;53.584;9.968;2022-12-07T01:15:47;3.77;;;3.50;;
938;SDS011;456;53.584;9.968;2022-12-07T01:18:13;4.50;;;4.10;;
938;SDS011;456;53.584;9.968;2022-12-07T01:20:38;4.23;;;3.83;;
938;SDS011;456;53.584;9.968;2022-12-07T01:23:04;4.67;;;4.27;;
938;SDS011;456;53.584;9.968;2022-12-07T01:25:30;4.33;;;3.83;;
938;SDS011;456;53.584;9.968;2022-12-07T01:27:55;3.80;;;3.50;;
938;SDS011;456;53.584;9.968;2022-12-07T01:30:21;4.40;;;4.00;;
938;SDS011;456;53.584;9.968;2022-12-07T01:32:47;4.10;;;3.80;;
938;SDS011;456;53.584;9.968;2022-12-07T01:35:13;3.60;;;3.40;;
938;SDS011;456;53.584;9.968;2022-12-07T01:37:39;3.87;;;3.53;;
938;SDS011;456;53.584;9.968;2022-12-07T01:40:05;3.47;;;3.17;;
938;SDS011;456;53.584;9.968;2022-12-07T01:42:32;3.57;;;3.33;;
938;SDS011;456;53.584;9.968;2022-12-07T01:47:50;5.60;;;3.70;;
938;SDS011;456;53.584;9.968;2022-12-07T01:50:20;3.53;;;3.23;;
938;SDS011;456;53.584;9.968;2022-12-07T01:52:49;3.20;;;2.90;;
938;SDS011;456;53.584;9.968;2022-12-07T01:55:17;3.20;;;3.00;;
938;SDS011;456;53.584;9.968;2022-12-07T01:57:44;5.33;;;3.47;;
938;SDS011;456;53.584;9.968;2022-12-07T02:00:13;3.13;;;2.90;;
938;SDS011;456;53.584;9.968;2022-12-07T02:02:57;3.07;;;2.80;;
938;SDS011;456;53.584;9.968;2022-12-07T02:05:29;3.63;;;3.27;;
938;SDS011;456;53.584;9.968;2022-12-07T02:07:56;3.27;;;2.97;;
938;SDS011;456;53.584;9.968;2022-12-07T02:13:01;2.93;;;2.70;;
938;SDS011;456;53.584;9.968;2022-12-07T02:18:25;2.70;;;2.50;;
938;SDS011;456;53.584;9.968;2022-12-07T02:21:11;2.77;;;2.57;;
938;SDS011;456;53.584;9.968;2022-12-07T02:31:49;2.43;;;2.23;;
938;SDS011;456;53.584;9.968;2022-12-07T02:34:22;2.63;;;2.43;;
938;SDS011;456;53.584;9.968;2022-12-07T02:36:54;2.17;;;2.07;;
938;SDS011;456;53.584;9.968;2022-12-07T02:39:34;2.93;;;2.73;;
938;SDS011;456;53.584;9.968;2022-12-07T02:42:09;2.87;;;2.57;;
938;SDS011;456;53.584;9.968;2022-12-07T02:44:42;2.80;;;2.60;;
938;SDS011;456;53.584;9.968;2022-12-07T02:47:10;3.43;;;2.40;;
938;SDS011;456;53.584;9.968;2022-12-07T02:49:39;3.00;;;2.37;;
938;SDS011;456;53.584;9.968;2022-12-07T02:52:05;2.40;;;2.20;;
938;SDS011;456;53.584;9.968;2022-12-07T02:54:31;3.90;;;2.20;;
938;SDS011;456;53.584;9.968;2022-12-07T03:08:06;2.30;;;2.10;;
938;SDS011;456;53.584;9.968;2022-12-07T03:10:48;2.77;;;2.10;;
938;SDS011;456;53.584;9.968;2022-12-07T03:13:24;1.87;;;1.67;;
938;SDS011;456;53.584;9.968;2022-12-07T03:18:55;2.27;;;2.07;;
938;SDS011;456;53.584;9.968;2022-12-07T03:21:32;1.90;;;1.80;;
938;SDS011;456;53.584;9.968;2022-12-07T03:24:03;1.73;;;1.63;;
938;SDS011;456;53.584;9.968;2022-12-07T03:26:35;1.73;;;1.60;;
938;SDS011;456;53.584;9.968;2022-12-07T03:29:06;2.70;;;1.80;;
938;SDS011;456;53.584;9.968;2022-12-07T03:31:40;1.80;;;1.70;;
938;SDS011;456;53.584;9.968;2022-12-07T03:36:46;1.70;;;1.60;;
938;SDS011;456;53.584;9.968;2022-12-07T03:41:56;2.60;;;2.17;;
938;SDS011;456;53.584;9.968;2022-12-07T03:44:24;1.93;;;1.73;;
938;SDS011;456;53.584;9.968;2022-12-07T03:49:43;2.20;;;1.70;;
938;SDS011;456;53.584;9.968;2022-12-07T03:55:36;1.70;;;1.60;;
938;SDS011;456;53.584;9.968;2022-12-07T03:58:17;1.70;;;1.60;;
938;SDS011;456;53.584;9.968;2022-12-07T04:00:46;2.67;;;1.60;;
938;SDS011;456;53.584;9.968;2022-12-07T04:03:12;2.10;;;1.50;;
938;SDS011;456;53.584;9.968;2022-12-07T04:05:38;2.00;;;1.67;;
938;SDS011;456;53.584;9.968;2022-12-07T04:08:04;2.50;;;1.50;;
938;SDS011;456;53.584;9.968;2022-12-07T04:10:30;1.50;;;1.40;;
938;SDS011;456;53.584;9.968;2022-12-07T04:12:55;2.90;;;1.33;;
938;SDS011;456;53.584;9.968;2022-12-07T04:15:21;2.73;;;1.83;;
938;SDS011;456;53.584;9.968;2022-12-07T04:17:47;1.53;;;1.43;;
938;SDS011;456;53.584;9.968;2022-12-07T04:20:12;1.77;;;1.23;;
938;SDS011;456;53.584;9.968;2022-12-07T04:22:38;1.40;;;1.10;;
938;SDS011;456;53.584;9.968;2022-12-07T04:25:04;2.30;;;1.47;;
938;SDS011;456;53.584;9.968;2022-12-07T04:27:30;1.10;;;1.00;;
938;SDS011;456;53.584;9.968;2022-12-07T04:29:55;2.10;;;1.40;;
938;SDS011;456;53.584;9.968;2022-12-07T04:32:21;1.57;;;1.17;;
938;SDS011;456;53.584;9.968;2022-12-07T04:34:47;1.47;;;1.37;;
938;SDS011;456;53.584;9.968;2022-12-07T04:37:13;1.70;;;1.23;;
938;SDS011;456;53.584;9.968;2022-12-07T04:39:39;1.40;;;1.30;;
938;SDS011;456;53.584;9.968;2022-12-07T04:42:04;2.27;;;1.37;;
938;SDS011;456;53.584;9.968;2022-12-07T04:44:30;1.50;;;0.90;;
938;SDS011;456;53.584;9.968;2022-12-07T04:46:56;1.47;;;0.90;;
938;SDS011;456;53.584;9.968;2022-12-07T04:49:22;1.37;;;1.23;;
938;SDS011;456;53.584;9.968;2022-12-07T04:51:48;2.23;;;0.97;;
938;SDS011;456;53.584;9.968;2022-12-07T04:54:14;1.47;;;1.30;;
938;SDS011;456;53.584;9.968;2022-12-07T04:56:41;1.00;;;0.90;;
938;SDS011;456;53.584;9.968;2022-12-07T04:59:07;1.27;;;0.90;;
938;SDS011;456;53.584;9.968;2022-12-07T05:01:33;2.83;;;1.10;;
938;SDS011;456;53.584;9.968;2022-12-07T05:03:59;2.57;;;0.90;;
938;SDS011;456;53.584;9.968;2022-12-07T05:06:25;1.70;;;1.00;;
938;SDS011;456;53.584;9.968;2022-12-07T05:08:50;1.60;;;1.10;;
938;SDS011;456;53.584;9.968;2022-12-07T05:11:16;2.00;;;1.10;;
938;SDS011;456;53.584;9.968;2022-12-07T05:14:02;2.00;;;1.07;;
938;SDS011;456;53.584;9.968;2022-12-07T05:16:28;1.20;;;1.00;;
938;SDS011;456;53.584;9.968;2022-12-07T05:18:54;1.33;;;1.23;;
938;SDS011;456;53.584;9.968;2022-12-07T05:21:20;1.53;;;1.43;;
938;SDS011;456;53.584;9.968;2022-12-07T05:23:45;1.30;;;0.80;;
938;SDS011;456;53.584;9.968;2022-12-07T05:26:11;1.37;;;1.00;;
938;SDS011;456;53.584;9.968;2022-12-07T05:28:36;1.20;;;1.10;;
938;SDS011;456;53.584;9.968;2022-12-07T05:31:02;1.57;;;1.00;;
938;SDS011;456;53.584;9.968;2022-12-07T05:33:28;1.77;;;1.13;;
938;SDS011;456;53.584;9.968;2022-12-07T05:35:53;1.60;;;1.13;;
938;SDS011;456;53.584;9.968;2022-12-07T05:38:19;1.50;;;1.13;;
938;SDS011;456;53.584;9.968;2022-12-07T05:40:44;3.07;;;1.20;;
938;SDS011;456;53.584;9.968;2022-12-07T05:43:10;1.67;;;0.90;;
938;SDS011;456;53.584;9.968;2022-12-07T05:45:36;1.40;;;0.90;;
938;SDS011;456;53.584;9.968;2022-12-07T05:48:01;1.70;;;1.27;;
938;SDS011;456;53.584;9.968;2022-12-07T05:50:27;1.50;;;1.10;;
938;SDS011;456;53.584;9.968;2022-12-07T05:52:53;1.53;;;0.90;;
938;SDS011;456;53.584;9.968;2022-12-07T05:55:19;2.37;;;1.20;;
938;SDS011;456;53.584;9.968;2022-12-07T05:57:44;0.97;;;0.90;;
938;SDS011;456;53.584;9.968;2022-12-07T06:00:30;1.20;;;1.10;;
938;SDS011;456;53.584;9.968;2022-12-07T06:02:56;1.60;;;1.40;;
938;SDS011;456;53.584;9.968;2022-12-07T06:05:22;3.17;;;1.37;;
938;SDS011;456;53.584;9.968;2022-12-07T06:07:47;1.20;;;1.10;;
938;SDS011;456;53.584;9.968;2022-12-07T06:10:14;2.03;;;1.10;;
938;SDS011;456;53.584;9.968;2022-12-07T06:12:39;1.13;;;1.03;;
938;SDS011;456;53.584;9.968;2022-12-07T06:15:08;1.77;;;1.33;;
938;SDS011;456;53.584;9.968;2022-12-07T06:17:34;1.20;;;1.10;;
938;SDS011;456;53.584;9.968;2022-12-07T06:20:01;2.30;;;1.53;;
938;SDS011;456;53.584;9.968;2022-12-07T06:22:27;1.30;;;1.20;;
938;SDS011;456;53.584;9.968;2022-12-07T06:24:53;2.00;;;1.50;;
938;SDS011;456;53.584;9.968;2022-12-07T06:27:18;3.00;;;1.30;;
938;SDS011;456;53.584;9.968;2022-12-07T06:29:44;4.30;;;1.57;;
938;SDS011;456;53.584;9.968;2022-12-07T06:32:09;2.83;;;1.50;;
938;SDS011;456;53.584;9.968;2022-12-07T06:34:36;1.60;;;1.07;;
938;SDS011;456;53.584;9.968;2022-12-07T06:37:02;1.50;;;1.10;;
938;SDS011;456;53.584;9.968;2022-12-07T06:39:28;1.63;;;1.17;;
938;SDS011;456;53.584;9.968;2022-12-07T06:41:54;4.97;;;1.50;;
938;SDS011;456;53.584;9.968;2022-12-07T06:44:21;2.83;;;1.17;;
938;SDS011;456;53.584;9.968;2022-12-07T06:46:47;1.90;;;1.27;;
938;SDS011;456;53.584;9.968;2022-12-07T06:49:13;2.63;;;1.43;;
938;SDS011;456;53.584;9.968;2022-12-07T06:51:38;3.23;;;1.37;;
938;SDS011;456;53.584;9.968;2022-12-07T06:54:09;3.93;;;1.40;;
938;SDS011;456;53.584;9.968;2022-12-07T06:56:36;1.93;;;1.33;;
938;SDS011;456;53.584;9.968;2022-12-07T06:59:02;2.50;;;1.20;;
938;SDS011;456;53.584;9.968;2022-12-07T07:01:30;3.43;;;1.20;;
938;SDS011;456;53.584;9.968;2022-12-07T07:03:56;3.67;;;1.13;;
938;SDS011;456;53.584;9.968;2022-12-07T07:06:21;2.97;;;1.27;;
938;SDS011;456;53.584;9.968;2022-12-07T07:08:49;2.30;;;1.60;;
938;SDS011;456;53.584;9.968;2022-12-07T07:11:15;2.73;;;1.37;;
938;SDS011;456;53.584;9.968;2022-12-07T07:13:40;1.30;;;0.80;;
938;SDS011;456;53.584;9.968;2022-12-07T07:16:06;1.67;;;1.03;;
938;SDS011;456;53.584;9.968;2022-12-07T07:18:32;2.50;;;1.10;;
938;SDS011;456;53.584;9.968;2022-12-07T07:20:58;1.47;;;1.10;;
938;SDS011;456;53.584;9.968;2022-12-07T07:23:23;1.53;;;1.00;;
938;SDS011;456;53.584;9.968;2022-12-07T07:25:49;4.23;;;1.20;;
938;SDS011;456;53.584;9.968;2022-12-07T07:28:15;1.77;;;0.90;;
938;SDS011;456;53.584;9.968;2022-12-07T07:30:41;1.60;;;1.03;;
938;SDS011;456;53.584;9.968;2022-12-07T07:33:07;1.70;;;1.03;;
938;SDS011;456;53.584;9.968;2022-12-07T08:42:12;2.80;;;1.30;;
938;SDS011;456;53.584;9.968;2022-12-07T08:44:38;3.83;;;0.90;;
938;SDS011;456;53.584;9.968;2022-12-07T08:47:05;1.80;;;0.97;;
938;SDS011;456;53.584;9.968;2022-12-07T08:52:56;2.47;;;1.17;;
938;SDS011;456;53.584;9.968;2022-12-07T08:55:23;1.90;;;1.07;;
938;SDS011;456;53.584;9.968;2022-12-07T08:57:49;3.60;;;1.30;;
938;SDS011;456;53.584;9.968;2022-12-07T09:00:15;1.87;;;1.10;;
938;SDS011;456;53.584;9.968;2022-12-07T09:02:44;1.87;;;0.90;;
938;SDS011;456;53.584;9.968;2022-12-07T09:05:11;1.30;;;1.10;;
938;SDS011;456;53.584;9.968;2022-12-07T09:07:37;1.10;;;1.00;;
938;SDS011;456;53.584;9.968;2022-12-07T09:10:04;1.50;;;1.00;;
938;SDS011;456;53.584;9.968;2022-12-07T09:12:30;1.17;;;0.97;;
938;SDS011;456;53.584;9.968;2022-12-07T09:14:55;1.40;;;0.90;;
938;SDS011;456;53.584;9.968;2022-12-07T09:17:21;1.00;;;0.90;;
938;SDS011;456;53.584;9.968;2022-12-07T09:19:47;1.10;;;0.80;;
938;SDS011;456;53.584;9.968;2022-12-07T09:22:13;1.20;;;0.97;;
938;SDS011;456;53.584;9.968;2022-12-07T09:24:38;1.37;;;1.00;;
938;SDS011;456;53.584;9.968;2022-12-07T09:27:04;1.40;;;0.80;;
938;SDS011;456;53.584;9.968;2022-12-07T09:29:29;1.70;;;1.20;;
938;SDS011;456;53.584;9.968;2022-12-07T09:31:55;1.53;;;0.93;;
938;SDS011;456;53.584;9.968;2022-12-07T09:34:20;2.47;;;1.30;;
938;SDS011;456;53.584;9.968;2022-12-07T09:36:46;1.57;;;0.90;;
938;SDS011;456;53.584;9.968;2022-12-07T09:39:12;1.20;;;0.80;;
938;SDS011;456;53.584;9.968;2022-12-07T09:41:38;1.27;;;0.77;;
938;SDS011;456;53.584;9.968;2022-12-07T09:44:09;1.00;;;0.70;;
938;SDS011;456;53.584;9.968;2022-12-07T09:46:39;1.33;;;0.70;;
938;SDS011;456;53.584;9.968;2022-12-07T09:49:16;1.40;;;1.10;;
938;SDS011;456;53.584;9.968;2022-12-07T09:51:47;2.50;;;1.00;;
938;SDS011;456;53.584;9.968;2022-12-07T09:54:24;1.30;;;0.90;;
938;SDS011;456;53.584;9.968;2022-12-07T09:56:49;1.87;;;0.80;;
938;SDS011;456;53.584;9.968;2022-12-07T09:59:18;1.60;;;1.00;;
938;SDS011;456;53.584;9.968;2022-12-07T10:01:45;1.73;;;0.80;;
938;SDS011;456;53.584;9.968;2022-12-07T10:06:40;0.97;;;0.87;;
938;SDS011;456;53.584;9.968;2022-12-07T10:09:10;1.00;;;0.70;;
938;SDS011;456;53.584;9.968;2022-12-07T10:14:24;1.13;;;1.03;;
938;SDS011;456;53.584;9.968;2022-12-07T10:16:53;1.47;;;0.87;;
938;SDS011;456;53.584;9.968;2022-12-07T10:19:30;0.90;;;0.70;;
938;SDS011;456;53.584;9.968;2022-12-07T10:24:36;1.60;;;0.90;;
938;SDS011;456;53.584;9.968;2022-12-07T10:27:04;1.00;;;0.70;;
938;SDS011;456;53.584;9.968;2022-12-07T10:29:31;1.40;;;0.80;;
938;SDS011;456;53.584;9.968;2022-12-07T10:32:08;3.00;;;0.67;;
938;SDS011;456;53.584;9.968;2022-12-07T10:37:45;0.80;;;0.63;;
938;SDS011;456;53.584;9.968;2022-12-07T10:40:30;1.00;;;0.90;;
938;SDS011;456;53.584;9.968;2022-12-07T10:43:05;2.03;;;0.90;;
938;SDS011;456;53.584;9.968;2022-12-07T10:53:43;1.70;;;1.00;;
938;SDS011;456;53.584;9.968;2022-12-07T11:04:03;1.07;;;0.87;;
938;SDS011;456;53.584;9.968;2022-12-07T11:06:34;1.00;;;0.70;;
938;SDS011;456;53.584;9.968;2022-12-07T11:14:56;0.80;;;0.77;;
938;SDS011;456;53.584;9.968;2022-12-07T11:17:26;1.80;;;0.80;;
938;SDS011;456;53.584;9.968;2022-12-07T11:22:48;1.00;;;0.80;;
938;SDS011;456;53.584;9.968;2022-12-07T11:25:38;1.30;;;0.90;;
938;SDS011;456;53.584;9.968;2022-12-07T11:28:21;1.30;;;1.10;;
938;SDS011;456;53.584;9.968;2022-12-07T11:31:03;1.10;;;1.00;;
938;SDS011;456;53.584;9.968;2022-12-07T11:33:53;0.97;;;0.73;;
938;SDS011;456;53.584;9.968;2022-12-07T11:36:43;1.43;;;0.90;;
938;SDS011;456;53.584;9.968;2022-12-07T11:39:18;1.20;;;0.80;;
938;SDS011;456;53.584;9.968;2022-12-07T11:41:46;1.13;;;0.60;;
938;SDS011;456;53.584;9.968;2022-12-07T11:44:21;0.90;;;0.70;;
938;SDS011;456;53.584;9.968;2022-12-07T11:46:59;1.10;;;0.80;;
938;SDS011;456;53.584;9.968;2022-12-07T11:52:43;1.97;;;0.90;;
938;SDS011;456;53.584;9.968;2022-12-07T11:56:00;1.87;;;0.90;;
938;SDS011;456;53.584;9.968;2022-12-07T12:00:58;1.67;;;1.00;;
938;SDS011;456;53.584;9.968;2022-12-07T12:03:36;1.57;;;0.80;;
938;SDS011;456;53.584;9.968;2022-12-07T12:06:05;1.50;;;0.87;;
938;SDS011;456;53.584;9.968;2022-12-07T12:08:33;1.37;;;1.00;;
938;SDS011;456;53.584;9.968;2022-12-07T12:11:25;1.03;;;0.73;;
938;SDS011;456;53.584;9.968;2022-12-07T12:14:11;1.40;;;0.90;;
938;SDS011;456;53.584;9.968;2022-12-07T12:22:23;1.47;;;0.80;;
938;SDS011;456;53.584;9.968;2022-12-07T12:24:58;2.20;;;0.90;;
938;SDS011;456;53.584;9.968;2022-12-07T12:27:25;2.67;;;0.90;;
938;SDS011;456;53.584;9.968;2022-12-07T12:29:55;1.10;;;0.90;;
938;SDS011;456;53.584;9.968;2022-12-07T12:32:35;0.90;;;0.80;;
938;SDS011;456;53.584;9.968;2022-12-07T12:37:50;2.70;;;0.93;;
938;SDS011;456;53.584;9.968;2022-12-07T12:42:47;2.90;;;1.00;;
938;SDS011;456;53.584;9.968;2022-12-07T12:45:30;1.50;;;0.80;;
938;SDS011;456;53.584;9.968;2022-12-07T12:53:12;1.00;;;0.80;;
938;SDS011;456;53.584;9.968;2022-12-07T13:04:01;1.40;;;1.20;;
938;SDS011;456;53.584;9.968;2022-12-07T13:08:54;2.10;;;1.10;;
938;SDS011;456;53.584;9.968;2022-12-07T13:11:30;1.13;;;1.03;;
938;SDS011;456;53.584;9.968;2022-12-07T13:17:01;1.47;;;0.93;;
938;SDS011;456;53.584;9.968;2022-12-07T13:22:34;1.60;;;0.97;;
938;SDS011;456;53.584;9.968;2022-12-07T13:25:07;2.80;;;0.97;;
938;SDS011;456;53.584;9.968;2022-12-07T13:27:37;1.60;;;1.13;;
938;SDS011;456;53.584;9.968;2022-12-07T13:30:24;2.30;;;1.10;;
938;SDS011;456;53.584;9.968;2022-12-07T13:32:51;2.10;;;1.40;;
938;SDS011;456;53.584;9.968;2022-12-07T13:35:28;2.57;;;1.00;;
938;SDS011;456;53.584;9.968;2022-12-07T13:37:54;1.33;;;0.90;;
938;SDS011;456;53.584;9.968;2022-12-07T13:40:20;1.40;;;0.93;;
938;SDS011;456;53.584;9.968;2022-12-07T13:42:47;1.47;;;0.70;;
938;SDS011;456;53.584;9.968;2022-12-07T13:45:23;1.53;;;1.10;;
938;SDS011;456;53.584;9.968;2022-12-07T13:51:14;2.00;;;0.90;;
938;SDS011;456;53.584;9.968;2022-12-07T13:53:54;1.20;;;0.70;;
938;SDS011;456;53.584;9.968;2022-12-07T13:56:27;1.90;;;1.00;;
938;SDS011;456;53.584;9.968;2022-12-07T13:58:57;1.60;;;0.90;;
938;SDS011;456;53.584;9.968;2022-12-07T14:01:24;1.40;;;0.70;;
938;SDS011;456;53.584;9.968;2022-12-07T14:03:50;1.90;;;1.13;;
938;SDS011;456;53.584;9.968;2022-12-07T14:06:20;1.73;;;1.10;;
938;SDS011;456;53.584;9.968;2022-12-07T14:08:47;1.57;;;0.87;;
938;SDS011;456;53.584;9.968;2022-12-07T14:11:14;1.07;;;0.83;;
938;SDS011;456;53.584;9.968;2022-12-07T14:16:32;1.60;;;0.90;;
938;SDS011;456;53.584;9.968;2022-12-07T14:19:05;2.00;;;1.57;;
938;SDS011;456;53.584;9.968;2022-12-07T14:22:05;1.30;;;1.07;;
938;SDS011;456;53.584;9.968;2022-12-07T14:24:43;2.50;;;1.63;;
938;SDS011;456;53.584;9.968;2022-12-07T14:27:46;1.80;;;1.30;;
938;SDS011;456;53.584;9.968;2022-12-07T14:30:02;3.30;;;1.70;;
938;SDS011;456;53.584;9.968;2022-12-07T14:32:29;2.53;;;1.70;;
938;SDS011;456;53.584;9.968;2022-12-07T14:37:33;2.00;;;1.57;;
938;SDS011;456;53.584;9.968;2022-12-07T14:39:58;3.03;;;1.93;;
938;SDS011;456;53.584;9.968;2022-12-07T14:42:26;2.80;;;1.80;;
938;SDS011;456;53.584;9.968;2022-12-07T14:44:53;2.33;;;1.70;;
938;SDS011;456;53.584;9.968;2022-12-07T14:47:19;3.03;;;1.47;;
938;SDS011;456;53.584;9.968;2022-12-07T14:49:45;1.43;;;1.23;;
938;SDS011;456;53.584;9.968;2022-12-07T14:52:15;2.73;;;1.80;;
938;SDS011;456;53.584;9.968;2022-12-07T14:54:43;1.60;;;1.40;;
938;SDS011;456;53.584;9.968;2022-12-07T14:57:09;1.80;;;1.10;;
938;SDS011;456;53.584;9.968;2022-12-07T14:59:36;1.53;;;1.43;;
938;SDS011;456;53.584;9.968;2022-12-07T15:02:02;2.13;;;1.50;;
938;SDS011;456;53.584;9.968;2022-12-07T15:04:27;2.67;;;1.90;;
938;SDS011;456;53.584;9.968;2022-12-07T15:06:57;2.27;;;1.90;;
938;SDS011;456;53.584;9.968;2022-12-07T15:09:24;3.40;;;1.63;;
938;SDS011;456;53.584;9.968;2022-12-07T15:11:49;3.73;;;1.40;;
938;SDS011;456;53.584;9.968;2022-12-07T15:14:15;1.53;;;1.30;;
938;SDS011;456;53.584;9.968;2022-12-07T15:16:41;5.50;;;1.77;;
938;SDS011;456;53.584;9.968;2022-12-07T15:19:10;2.07;;;1.60;;
938;SDS011;456;53.584;9.968;2022-12-07T15:21:38;1.97;;;1.30;;
938;SDS011;456;53.584;9.968;2022-12-07T15:24:05;2.50;;;1.60;;
938;SDS011;456;53.584;9.968;2022-12-07T15:26:30;2.60;;;1.60;;
938;SDS011;456;53.584;9.968;2022-12-07T15:28:56;1.80;;;1.30;;
938;SDS011;456;53.584;9.968;2022-12-07T15:31:22;1.67;;;1.33;;
938;SDS011;456;53.584;9.968;2022-12-07T15:33:47;2.30;;;1.50;;
938;SDS011;456;53.584;9.968;2022-12-07T15:36:23;1.87;;;1.27;;
938;SDS011;456;53.584;9.968;2022-12-07T15:38:51;3.93;;;1.40;;
938;SDS011;456;53.584;9.968;2022-12-07T15:41:16;1.77;;;1.23;;
938;SDS011;456;53.584;9.968;2022-12-07T15:43:42;1.73;;;1.30;;
938;SDS011;456;53.584;9.968;2022-12-07T15:46:30;3.17;;;1.50;;
938;SDS011;456;53.584;9.968;2022-12-07T15:49:00;1.70;;;1.40;;
938;SDS011;456;53.584;9.968;2022-12-07T15:51:27;1.37;;;0.93;;
938;SDS011;456;53.584;9.968;2022-12-07T15:53:53;1.10;;;0.93;;
938;SDS011;456;53.584;9.968;2022-12-07T15:56:19;1.70;;;1.30;;
938;SDS011;456;53.584;9.968;2022-12-07T15:58:45;1.90;;;1.40;;
938;SDS011;456;53.584;9.968;2022-12-07T16:01:14;2.00;;;1.27;;
938;SDS011;456;53.584;9.968;2022-12-07T16:03:43;2.17;;;0.97;;
938;SDS011;456;53.584;9.968;2022-12-07T16:06:10;5.97;;;1.20;;
938;SDS011;456;53.584;9.968;2022-12-07T16:08:36;2.70;;;1.53;;
938;SDS011;456;53.584;9.968;2022-12-07T16:11:06;1.20;;;1.10;;
938;SDS011;456;53.584;9.968;2022-12-07T16:13:32;1.87;;;1.37;;
938;SDS011;456;53.584;9.968;2022-12-07T16:16:01;1.47;;;1.00;;
938;SDS011;456;53.584;9.968;2022-12-07T16:18:32;5.23;;;1.37;;
938;SDS011;456;53.584;9.968;2022-12-07T16:20:58;3.73;;;1.73;;
938;SDS011;456;53.584;9.968;2022-12-07T16:23:23;1.30;;;1.20;;
938;SDS011;456;53.584;9.968;2022-12-07T16:25:49;1.90;;;1.10;;
938;SDS011;456;53.584;9.968;2022-12-07T16:28:15;1.67;;;1.10;;
938;SDS011;456;53.584;9.968;2022-12-07T16:30:40;3.50;;;1.23;;
938;SDS011;456;53.584;9.968;2022-12-07T16:33:06;1.40;;;1.30;;
938;SDS011;456;53.584;9.968;2022-12-07T16:35:31;1.80;;;1.20;;
938;SDS011;456;53.584;9.968;2022-12-07T16:37:57;1.63;;;1.33;;
938;SDS011;456;53.584;9.968;2022-12-07T16:40:23;1.40;;;1.03;;
938;SDS011;456;53.584;9.968;2022-12-07T16:42:48;2.00;;;1.20;;
938;SDS011;456;53.584;9.968;2022-12-07T16:45:14;2.13;;;1.40;;
938;SDS011;456;53.584;9.968;2022-12-07T16:47:40;1.30;;;1.20;;
938;SDS011;456;53.584;9.968;2022-12-07T16:50:06;2.43;;;1.50;;
938;SDS011;456;53.584;9.968;2022-12-07T16:52:32;1.57;;;1.33;;
938;SDS011;456;53.584;9.968;2022-12-07T16:54:58;1.93;;;1.50;;
938;SDS011;456;53.584;9.968;2022-12-07T16:57:24;3.27;;;2.33;;
938;SDS011;456;53.584;9.968;2022-12-07T16:59:50;3.60;;;2.53;;
938;SDS011;456;53.584;9.968;2022-12-07T17:02:17;4.67;;;3.03;;
938;SDS011;456;53.584;9.968;2022-12-07T17:04:42;4.40;;;3.00;;
938;SDS011;456;53.584;9.968;2022-12-07T17:07:08;3.70;;;3.33;;
938;SDS011;456;53.584;9.968;2022-12-07T17:09:34;3.50;;;2.80;;
938;SDS011;456;53.584;9.968;2022-12-07T17:12:00;3.97;;;3.27;;
938;SDS011;456;53.584;9.968;2022-12-07T17:14:26;5.20;;;2.97;;
938;SDS011;456;53.584;9.968;2022-12-07T17:17:10;2.90;;;2.60;;
938;SDS011;456;53.584;9.968;2022-12-07T17:19:36;3.53;;;2.93;;
938;SDS011;456;53.584;9.968;2022-12-07T17:22:02;3.17;;;2.80;;
938;SDS011;456;53.584;9.968;2022-12-07T17:24:27;6.33;;;3.20;;
938;SDS011;456;53.584;9.968;2022-12-07T17:26:53;3.60;;;2.63;;
938;SDS011;456;53.584;9.968;2022-12-07T17:29:19;4.10;;;2.90;;
938;SDS011;456;53.584;9.968;2022-12-07T17:31:45;4.80;;;3.37;;
938;SDS011;456;53.584;9.968;2022-12-07T17:34:13;2.83;;;2.37;;
938;SDS011;456;53.584;9.968;2022-12-07T17:36:40;2.30;;;2.10;;
938;SDS011;456;53.584;9.968;2022-12-07T17:39:09;2.83;;;2.27;;
938;SDS011;456;53.584;9.968;2022-12-07T17:41:36;3.20;;;2.90;;
938;SDS011;456;53.584;9.968;2022-12-07T17:44:21;3.73;;;2.70;;
938;SDS011;456;53.584;9.968;2022-12-07T17:46:48;2.73;;;2.53;;
938;SDS011;456;53.584;9.968;2022-12-07T17:49:19;2.90;;;2.50;;
938;SDS011;456;53.584;9.968;2022-12-07T17:51:45;2.97;;;2.67;;
938;SDS011;456;53.584;9.968;2022-12-07T17:54:29;2.60;;;2.30;;
938;SDS011;456;53.584;9.968;2022-12-07T17:56:54;3.20;;;2.43;;
938;SDS011;456;53.584;9.968;2022-12-07T17:59:20;3.67;;;2.60;;
938;SDS011;456;53.584;9.968;2022-12-07T18:01:45;3.33;;;2.40;;
938;SDS011;456;53.584;9.968;2022-12-07T18:04:11;2.23;;;2.03;;
938;SDS011;456;53.584;9.968;2022-12-07T18:06:37;3.20;;;2.53;;
938;SDS011;456;53.584;9.968;2022-12-07T18:09:03;2.80;;;2.60;;
938;SDS011;456;53.584;9.968;2022-12-07T18:11:29;3.50;;;2.40;;
938;SDS011;456;53.584;9.968;2022-12-07T18:13:55;3.40;;;2.70;;
938;SDS011;456;53.584;9.968;2022-12-07T18:16:22;2.30;;;2.10;;
938;SDS011;456;53.584;9.968;2022-12-07T18:18:49;2.40;;;2.07;;
938;SDS011;456;53.584;9.968;2022-12-07T18:21:18;2.43;;;1.90;;
938;SDS011;456;53.584;9.968;2022-12-07T18:23:50;2.57;;;1.90;;
938;SDS011;456;53.584;9.968;2022-12-07T18:26:17;3.27;;;2.23;;
938;SDS011;456;53.584;9.968;2022-12-07T18:28:44;2.23;;;1.80;;
938;SDS011;456;53.584;9.968;2022-12-07T18:31:10;2.33;;;2.13;;
938;SDS011;456;53.584;9.968;2022-12-07T18:33:37;2.57;;;1.73;;
938;SDS011;456;53.584;9.968;2022-12-07T18:36:03;2.40;;;2.20;;
938;SDS011;456;53.584;9.968;2022-12-07T18:38:29;2.37;;;2.17;;
938;SDS011;456;53.584;9.968;2022-12-07T18:40:56;2.57;;;1.93;;
938;SDS011;456;53.584;9.968;2022-12-07T18:43:22;2.20;;;1.80;;
938;SDS011;456;53.584;9.968;2022-12-07T18:45:49;2.07;;;1.87;;
938;SDS011;456;53.584;9.968;2022-12-07T18:48:16;2.30;;;1.87;;
938;SDS011;456;53.584;9.968;2022-12-07T18:50:43;4.00;;;1.80;;
938;SDS011;456;53.584;9.968;2022-12-07T18:53:10;3.20;;;2.03;;
938;SDS011;456;53.584;9.968;2022-12-07T18:55:36;2.40;;;2.20;;
938;SDS011;456;53.584;9.968;2022-12-07T18:58:03;3.30;;;2.17;;
938;SDS011;456;53.584;9.968;2022-12-07T19:00:29;3.80;;;2.50;;
938;SDS011;456;53.584;9.968;2022-12-07T19:02:56;2.43;;;1.83;;
938;SDS011;456;53.584;9.968;2022-12-07T19:05:22;3.07;;;2.23;;
938;SDS011;456;53.584;9.968;2022-12-07T19:07:48;3.40;;;2.00;;
938;SDS011;456;53.584;9.968;2022-12-07T19:10:16;2.03;;;1.83;;